Time;durP1;ratioP1;P1;durP2;ratioP2;P2;SDS_P1;SDS_P2;PMS_P1;PMS_P2;Temp;Humidity;BMP_temperature;BMP_pressure;BME280_temperature;BME280_humidity;BME280_pressure;Samples;Min_cycle;Max_cycle;Signal;HPM_P1;HPM_P2
2023/07/30 00:02:02;;;;;;;;;1.50;1.00;;;;;;;;4844848;29;46650;-76
2023/07/30 00:04:27;;;;;;;;;4.00;1.25;;;;;;;;4844643;29;45502;-75
2023/07/30 00:06:52;;;;;;;;;1.00;1.00;;;;;;;;4844963;29;45246;-75
2023/07/30 00:09:17;;;;;;;;;3.00;1.75;;;;;;;;4844650;29;45479;-76
2023/07/30 00:11:43;;;;;;;;;3.75;1.00;;;;;;;;4843782;29;46432;-74
2023/07/30 00:14:08;;;;;;;;;6.00;1.75;;;;;;;;4844954;29;45245;-75
2023/07/30 00:16:33;;;;;;;;;1.00;1.00;;;;;;;;4845001;29;45274;-74
2023/07/30 00:18:58;;;;;;;;;3.00;1.00;;;;;;;;4845085;29;45276;-75
2023/07/30 00:21:23;;;;;;;;;5.50;1.00;;;;;;;;4844623;29;46188;-74
2023/07/30 00:23:49;;;;;;;;;3.50;1.00;;;;;;;;4844732;29;45382;-75
2023/07/30 00:26:14;;;;;;;;;1.75;1.00;;;;;;;;4844316;29;45480;-75
2023/07/30 00:28:39;;;;;;;;;1.50;1.00;;;;;;;;4844993;29;45311;-75
2023/07/30 00:31:04;;;;;;;;;3.00;1.00;;;;;;;;4844741;29;45452;-74
2023/07/30 00:33:29;;;;;;;;;1.00;0.00;;;;;;;;4844567;29;45237;-74
2023/07/30 00:35:55;;;;;;;;;1.25;1.25;;;;;;;;4844573;29;45487;-75
2023/07/30 00:38:20;;;;;;;;;1.50;1.00;;;;;;;;4844707;29;45322;-73
2023/07/30 00:40:45;;;;;;;;;2.00;1.00;;;;;;;;4844210;29;45390;-74
2023/07/30 00:43:10;;;;;;;;;1.50;1.50;;;;;;;;4844668;29;45218;-74
2023/07/30 00:45:36;;;;;;;;;1.00;1.00;;;;;;;;4845826;29;45406;-74
2023/07/30 00:48:01;;;;;;;;;2.75;0.25;;;;;;;;4848270;29;45444;-75
2023/07/30 00:50:26;;;;;;;;;3.50;0.50;;;;;;;;4847419;29;46167;-76
2023/07/30 00:52:51;;;;;;;;;2.00;0.00;;;;;;;;4847678;29;45251;-76
2023/07/30 00:55:17;;;;;;;;;4.50;4.25;;;;;;;;4847555;29;45451;-76
2023/07/30 00:57:42;;;;;;;;;3.00;1.25;;;;;;;;4847241;29;45389;-76
2023/07/30 01:00:09;;;;;;;;;2.50;1.00;;;;;;;;4847705;29;47247;-77
2023/07/30 01:02:35;;;;;;;;;2.00;1.00;;;;;;;;4856098;29;45925;-77
2023/07/30 01:05:01;;;;;;;;;3.25;1.00;;;;;;;;4859225;29;45321;-77
2023/07/30 01:07:26;;;;;;;;;2.25;1.00;;;;;;;;4854490;29;45590;-76
2023/07/30 01:09:51;;;;;;;;;3.00;1.00;;;;;;;;4859298;29;46235;-76
2023/07/30 01:12:17;;;;;;;;;1.50;1.50;;;;;;;;4847453;29;45316;-76
2023/07/30 01:14:43;;;;;;;;;1.50;1.50;;;;;;;;4846566;29;45561;-74
2023/07/30 01:17:09;;;;;;;;;4.00;1.00;;;;;;;;4847289;29;45468;-76
2023/07/30 01:19:34;;;;;;;;;4.75;2.00;;;;;;;;4853787;29;46238;-76
2023/07/30 01:21:59;;;;;;;;;4.50;0.75;;;;;;;;4865731;29;45466;-76
2023/07/30 01:24:24;;;;;;;;;3.25;2.25;;;;;;;;4861178;29;45445;-75
2023/07/30 01:27:10;;;;;;;;;1.50;1.00;;;;;;;;4846717;29;45468;-76
2023/07/30 01:29:40;;;;;;;;;4.75;1.00;;;;;;;;4846417;29;46118;-75
2023/07/30 01:32:07;;;;;;;;;4.00;2.25;;;;;;;;4846625;29;45452;-75
2023/07/30 01:34:34;;;;;;;;;1.00;1.00;;;;;;;;4847328;29;45346;-76
2023/07/30 01:37:00;;;;;;;;;3.25;0.00;;;;;;;;4847355;29;45327;-75
2023/07/30 01:39:25;;;;;;;;;4.75;1.00;;;;;;;;4846945;29;46189;-75
2023/07/30 01:41:53;;;;;;;;;1.00;1.00;;;;;;;;4847122;29;45316;-76
2023/07/30 01:44:18;;;;;;;;;3.50;2.00;;;;;;;;4847074;29;45407;-76
2023/07/30 01:46:43;;;;;;;;;0.00;0.00;;;;;;;;4846804;29;45442;-75
2023/07/30 01:49:08;;;;;;;;;1.25;1.00;;;;;;;;4846664;29;46377;-75
2023/07/30 01:51:34;;;;;;;;;3.50;1.00;;;;;;;;4846533;29;45405;-75
2023/07/30 01:53:59;;;;;;;;;3.50;1.00;;;;;;;;4847021;29;45291;-75
2023/07/30 01:56:24;;;;;;;;;1.75;1.00;;;;;;;;4846741;29;45524;-76
2023/07/30 01:58:49;;;;;;;;;2.50;1.00;;;;;;;;4846516;29;45508;-75
2023/07/30 02:01:15;;;;;;;;;4.00;1.00;;;;;;;;4846440;29;45453;-74
2023/07/30 02:03:40;;;;;;;;;3.00;1.00;;;;;;;;4846412;29;45539;-74
2023/07/30 02:06:06;;;;;;;;;2.00;0.00;;;;;;;;4846527;29;45567;-76
2023/07/30 02:08:31;;;;;;;;;3.00;1.50;;;;;;;;4846557;29;46179;-75
2023/07/30 02:10:57;;;;;;;;;3.00;1.00;;;;;;;;4846647;29;45297;-76
2023/07/30 02:13:22;;;;;;;;;1.00;1.00;;;;;;;;4846609;29;45412;-76
2023/07/30 02:15:48;;;;;;;;;2.00;1.00;;;;;;;;4846892;29;45327;-75
2023/07/30 02:18:13;;;;;;;;;1.75;0.50;;;;;;;;4846211;29;46647;-75
2023/07/30 02:20:38;;;;;;;;;2.00;2.00;;;;;;;;4846471;29;45306;-76
2023/07/30 02:23:03;;;;;;;;;3.00;2.00;;;;;;;;4846469;29;45313;-77
2023/07/30 02:25:29;;;;;;;;;4.00;1.00;;;;;;;;4846418;29;45297;-74
2023/07/30 02:27:54;;;;;;;;;4.50;2.00;;;;;;;;4846487;29;45316;-74
2023/07/30 02:30:19;;;;;;;;;3.00;1.00;;;;;;;;4846291;29;45424;-74
2023/07/30 02:32:44;;;;;;;;;3.25;1.25;;;;;;;;4846298;29;45293;-75
2023/07/30 02:35:09;;;;;;;;;2.75;1.75;;;;;;;;4846073;29;45429;-75
2023/07/30 02:37:35;;;;;;;;;4.50;1.75;;;;;;;;4845976;29;47598;-75
2023/07/30 02:40:01;;;;;;;;;8.50;1.00;;;;;;;;4846304;29;45226;-75
2023/07/30 02:42:26;;;;;;;;;2.50;1.25;;;;;;;;4845204;29;45217;-76
2023/07/30 02:44:51;;;;;;;;;6.25;2.00;;;;;;;;4846351;29;45439;-74
2023/07/30 02:47:17;;;;;;;;;2.50;1.25;;;;;;;;4846076;29;45458;-74
2023/07/30 02:49:42;;;;;;;;;3.25;2.00;;;;;;;;4845357;29;45606;-74
2023/07/30 02:52:07;;;;;;;;;5.50;2.00;;;;;;;;4845867;29;45285;-74
2023/07/30 02:54:32;;;;;;;;;2.00;2.00;;;;;;;;4845835;29;45612;-75
2023/07/30 02:56:57;;;;;;;;;2.50;1.00;;;;;;;;4845866;29;46591;-75
2023/07/30 02:59:23;;;;;;;;;4.00;1.00;;;;;;;;4845805;29;45347;-76
2023/07/30 03:01:48;;;;;;;;;2.00;1.00;;;;;;;;4845856;29;45299;-76
2023/07/30 03:04:13;;;;;;;;;2.75;0.50;;;;;;;;4846265;29;45303;-76
2023/07/30 03:06:38;;;;;;;;;2.00;1.00;;;;;;;;4845302;29;46680;-74
2023/07/30 03:09:03;;;;;;;;;2.25;1.00;;;;;;;;4844382;29;45313;-75
2023/07/30 03:11:28;;;;;;;;;1.75;1.75;;;;;;;;4845871;29;45351;-76
2023/07/30 03:13:54;;;;;;;;;3.00;2.00;;;;;;;;4845903;29;45424;-75
2023/07/30 03:16:19;;;;;;;;;4.25;1.75;;;;;;;;4844414;29;46451;-75
2023/07/30 03:18:44;;;;;;;;;2.75;2.00;;;;;;;;4844770;29;45429;-73
2023/07/30 03:21:09;;;;;;;;;5.00;2.00;;;;;;;;4845762;29;45388;-70
2023/07/30 03:23:35;;;;;;;;;2.50;1.75;;;;;;;;4845914;29;45308;-73
2023/07/30 03:26:00;;;;;;;;;1.00;1.00;;;;;;;;4845217;29;45671;-72
2023/07/30 03:28:25;;;;;;;;;3.00;3.00;;;;;;;;4845122;29;45512;-69
2023/07/30 03:30:50;;;;;;;;;3.50;2.50;;;;;;;;4845494;29;45635;-73
2023/07/30 03:33:16;;;;;;;;;5.75;2.00;;;;;;;;4845759;29;45334;-71
2023/07/30 03:35:41;;;;;;;;;3.50;1.00;;;;;;;;4845190;29;45612;-71
2023/07/30 03:38:06;;;;;;;;;2.00;2.00;;;;;;;;4845359;29;45308;-72
2023/07/30 03:40:31;;;;;;;;;5.25;1.50;;;;;;;;4845424;29;45327;-72
2023/07/30 03:42:57;;;;;;;;;1.00;1.00;;;;;;;;4845507;29;45352;-71
2023/07/30 03:45:22;;;;;;;;;3.25;1.25;;;;;;;;4845216;29;45670;-71
2023/07/30 03:47:47;;;;;;;;;3.00;1.00;;;;;;;;4845185;29;45404;-70
2023/07/30 03:50:12;;;;;;;;;3.50;1.75;;;;;;;;4845236;29;45491;-74
2023/07/30 03:52:38;;;;;;;;;4.50;2.50;;;;;;;;4845540;29;45318;-70
2023/07/30 03:55:03;;;;;;;;;2.00;2.00;;;;;;;;4844810;29;46078;-71
2023/07/30 03:57:28;;;;;;;;;4.00;1.50;;;;;;;;4845054;29;45457;-71
2023/07/30 03:59:53;;;;;;;;;3.75;1.25;;;;;;;;4844825;29;45351;-71
2023/07/30 04:02:19;;;;;;;;;1.00;0.00;;;;;;;;4845260;29;45327;-71
2023/07/30 04:04:45;;;;;;;;;16.00;15.00;;;;;;;;4844997;29;46411;-71
2023/07/30 04:07:11;;;;;;;;;7.50;3.00;;;;;;;;4844470;29;45490;-71
2023/07/30 04:09:36;;;;;;;;;4.75;3.75;;;;;;;;4845112;29;45292;-71
2023/07/30 04:12:01;;;;;;;;;4.50;2.00;;;;;;;;4845087;29;45396;-71
2023/07/30 04:14:26;;;;;;;;;7.00;2.50;;;;;;;;4844386;29;46800;-70
2023/07/30 04:16:52;;;;;;;;;2.00;2.00;;;;;;;;4844977;29;45398;-71
2023/07/30 04:19:17;;;;;;;;;2.00;2.00;;;;;;;;4844892;29;45360;-71
2023/07/30 04:21:42;;;;;;;;;5.00;2.00;;;;;;;;4844365;29;45235;-71
2023/07/30 04:24:07;;;;;;;;;3.50;1.00;;;;;;;;4844803;29;45290;-71
2023/07/30 04:26:32;;;;;;;;;3.75;2.00;;;;;;;;4844634;29;45325;-71
2023/07/30 04:28:58;;;;;;;;;3.25;3.25;;;;;;;;4844781;29;45291;-73
2023/07/30 04:31:23;;;;;;;;;1.25;1.00;;;;;;;;4843819;29;45300;-72
2023/07/30 04:33:48;;;;;;;;;6.00;2.50;;;;;;;;4843822;29;45458;-71
2023/07/30 04:36:13;;;;;;;;;3.00;1.25;;;;;;;;4842961;29;45550;-71
2023/07/30 04:38:38;;;;;;;;;1.75;1.00;;;;;;;;4843867;29;45465;-71
2023/07/30 04:41:04;;;;;;;;;2.00;2.00;;;;;;;;4843744;29;45511;-71
2023/07/30 04:43:29;;;;;;;;;3.75;2.25;;;;;;;;4842726;29;45512;-71
2023/07/30 04:45:54;;;;;;;;;3.50;1.00;;;;;;;;4843683;29;46811;-72
2023/07/30 04:48:19;;;;;;;;;7.25;2.50;;;;;;;;4843043;29;45328;-70
2023/07/30 04:50:45;;;;;;;;;1.75;1.25;;;;;;;;4843548;29;45231;-71
2023/07/30 04:53:10;;;;;;;;;4.75;1.75;;;;;;;;4843002;29;46125;-71
2023/07/30 04:55:35;;;;;;;;;2.50;2.00;;;;;;;;4842794;29;45385;-71
2023/07/30 04:58:00;;;;;;;;;1.00;1.00;;;;;;;;4843731;29;45343;-71
2023/07/30 05:00:26;;;;;;;;;3.00;1.00;;;;;;;;4843288;29;45328;-71
2023/07/30 05:02:51;;;;;;;;;3.25;2.75;;;;;;;;4842782;29;46478;-71
2023/07/30 05:05:16;;;;;;;;;2.50;2.00;;;;;;;;4842921;29;45471;-71
2023/07/30 05:07:41;;;;;;;;;3.50;2.00;;;;;;;;4842115;29;45538;-71
2023/07/30 05:10:09;;;;;;;;;6.75;3.00;;;;;;;;4843190;29;45312;-71
2023/07/30 05:12:35;;;;;;;;;2.25;1.00;;;;;;;;4842678;29;45667;-71
2023/07/30 05:15:00;;;;;;;;;7.75;3.00;;;;;;;;4843119;29;45156;-71
2023/07/30 05:17:25;;;;;;;;;7.25;5.50;;;;;;;;4842811;29;45508;-71
2023/07/30 05:19:50;;;;;;;;;1.75;1.75;;;;;;;;4843374;29;45240;-71
2023/07/30 05:22:16;;;;;;;;;3.00;1.25;;;;;;;;4842530;29;45615;-71
2023/07/30 05:24:41;;;;;;;;;8.75;1.75;;;;;;;;4842711;29;45234;-73
2023/07/30 05:27:06;;;;;;;;;2.00;2.00;;;;;;;;4843102;29;45424;-71
2023/07/30 05:29:31;;;;;;;;;4.50;2.00;;;;;;;;4842621;29;45423;-71
2023/07/30 05:31:56;;;;;;;;;1.50;1.25;;;;;;;;4843427;29;46516;-71
2023/07/30 05:34:22;;;;;;;;;2.50;2.00;;;;;;;;4846238;29;45368;-71
2023/07/30 05:36:47;;;;;;;;;3.75;2.00;;;;;;;;4845750;29;45176;-71
2023/07/30 05:39:12;;;;;;;;;9.00;2.00;;;;;;;;4845874;29;45411;-69
2023/07/30 05:41:37;;;;;;;;;3.00;2.00;;;;;;;;4845802;29;46279;-69
2023/07/30 05:44:02;;;;;;;;;2.50;1.50;;;;;;;;4845911;29;45443;-70
2023/07/30 05:46:28;;;;;;;;;3.00;3.00;;;;;;;;4845419;29;45255;-69
2023/07/30 05:48:53;;;;;;;;;6.00;2.00;;;;;;;;4846125;29;45471;-69
2023/07/30 05:51:18;;;;;;;;;8.00;3.00;;;;;;;;4845753;29;46266;-68
2023/07/30 05:53:43;;;;;;;;;4.75;2.25;;;;;;;;4845864;29;45436;-70
2023/07/30 05:56:09;;;;;;;;;5.00;2.50;;;;;;;;4845497;29;45288;-69
2023/07/30 05:58:34;;;;;;;;;2.00;2.00;;;;;;;;4846360;29;45406;-69
2023/07/30 06:00:59;;;;;;;;;6.00;1.50;;;;;;;;4845386;29;45604;-69
2023/07/30 06:03:24;;;;;;;;;4.25;1.50;;;;;;;;4845761;29;46172;-69
2023/07/30 06:05:49;;;;;;;;;3.25;1.00;;;;;;;;4845345;29;45377;-70
2023/07/30 06:08:15;;;;;;;;;4.50;2.50;;;;;;;;4845387;29;45266;-70
2023/07/30 06:10:40;;;;;;;;;2.00;1.00;;;;;;;;4845521;29;46104;-71
2023/07/30 06:13:06;;;;;;;;;2.75;1.00;;;;;;;;4845493;29;45479;-70
2023/07/30 06:15:31;;;;;;;;;3.25;2.25;;;;;;;;4845281;29;45381;-70
2023/07/30 06:17:56;;;;;;;;;3.25;2.00;;;;;;;;4845830;29;45492;-70
2023/07/30 06:20:22;;;;;;;;;3.25;2.00;;;;;;;;4845022;29;45392;-71
2023/07/30 06:22:47;;;;;;;;;5.00;1.25;;;;;;;;4845448;29;46046;-70
2023/07/30 06:25:12;;;;;;;;;3.75;1.50;;;;;;;;4845428;29;45680;-69
2023/07/30 06:27:37;;;;;;;;;1.50;1.50;;;;;;;;4845209;29;45707;-71
2023/07/30 06:30:03;;;;;;;;;1.00;1.00;;;;;;;;4845251;29;46552;-70
2023/07/30 06:32:28;;;;;;;;;0.50;0.50;;;;;;;;4845018;29;45437;-70
2023/07/30 06:34:53;;;;;;;;;2.75;2.00;;;;;;;;4845110;29;45623;-70
2023/07/30 06:37:19;;;;;;;;;1.00;0.00;;;;;;;;4845660;29;45416;-70
2023/07/30 06:39:44;;;;;;;;;1.00;1.00;;;;;;;;4844704;29;46449;-70
2023/07/30 06:42:09;;;;;;;;;1.75;1.75;;;;;;;;4844080;29;45443;-71
2023/07/30 06:44:35;;;;;;;;;2.25;2.25;;;;;;;;4845112;29;45547;-71
2023/07/30 06:47:00;;;;;;;;;2.00;1.00;;;;;;;;4844719;29;45671;-71
2023/07/30 06:49:26;;;;;;;;;2.00;1.25;;;;;;;;4844698;29;46264;-75
2023/07/30 06:51:51;;;;;;;;;4.00;1.00;;;;;;;;4843133;29;45635;-75
2023/07/30 06:54:17;;;;;;;;;7.50;2.00;;;;;;;;4844974;29;45402;-75
2023/07/30 06:56:42;;;;;;;;;3.25;2.25;;;;;;;;4845501;29;45404;-77
2023/07/30 06:59:07;;;;;;;;;4.00;2.50;;;;;;;;4844285;29;46712;-76
2023/07/30 07:01:32;;;;;;;;;5.25;2.00;;;;;;;;4844282;29;45358;-77
2023/07/30 07:03:58;;;;;;;;;2.00;0.75;;;;;;;;4845032;29;45372;-76
2023/07/30 07:06:23;;;;;;;;;3.50;1.25;;;;;;;;4842573;29;45442;-75
2023/07/30 07:08:48;;;;;;;;;4.00;2.00;;;;;;;;4831185;29;45350;-76
2023/07/30 07:11:13;;;;;;;;;3.00;2.00;;;;;;;;4827510;29;45551;-79
2023/07/30 07:13:39;;;;;;;;;2.50;1.00;;;;;;;;4841880;29;45542;-76
2023/07/30 07:16:04;;;;;;;;;6.00;2.00;;;;;;;;4824916;29;45520;-75
2023/07/30 07:18:29;;;;;;;;;10.50;5.50;;;;;;;;4825611;29;45637;-74
2023/07/30 07:20:54;;;;;;;;;3.50;2.25;;;;;;;;4841645;29;45397;-75
2023/07/30 07:23:19;;;;;;;;;1.00;1.00;;;;;;;;4842314;29;45561;-75
2023/07/30 07:25:45;;;;;;;;;1.00;1.00;;;;;;;;4828145;29;45468;-77
2023/07/30 07:28:10;;;;;;;;;2.00;2.00;;;;;;;;4827645;29;45466;-76
2023/07/30 07:30:38;;;;;;;;;4.75;2.75;;;;;;;;4826105;29;45711;-75
2023/07/30 07:33:05;;;;;;;;;4.25;1.25;;;;;;;;4833727;29;45268;-74
2023/07/30 07:35:31;;;;;;;;;2.50;2.25;;;;;;;;4826954;29;45476;-74
2023/07/30 07:37:57;;;;;;;;;4.00;2.00;;;;;;;;4826750;29;46484;-75
2023/07/30 07:40:22;;;;;;;;;5.75;2.25;;;;;;;;4826684;29;45329;-75
2023/07/30 07:42:47;;;;;;;;;4.50;2.00;;;;;;;;4826819;29;45479;-73
2023/07/30 07:45:12;;;;;;;;;2.50;1.00;;;;;;;;4826928;29;45473;-76
2023/07/30 07:47:37;;;;;;;;;5.75;2.00;;;;;;;;4826442;29;46560;-74
2023/07/30 07:50:03;;;;;;;;;2.00;2.00;;;;;;;;4826561;29;45251;-75
2023/07/30 07:52:28;;;;;;;;;3.25;1.00;;;;;;;;4826629;29;45532;-74
2023/07/30 07:54:53;;;;;;;;;3.25;1.00;;;;;;;;4826058;29;45556;-75
2023/07/30 07:57:18;;;;;;;;;1.00;1.00;;;;;;;;4826622;29;45347;-76
2023/07/30 07:59:45;;;;;;;;;4.25;2.00;;;;;;;;4826568;29;45255;-75
2023/07/30 08:02:10;;;;;;;;;2.00;2.00;;;;;;;;4826580;29;45350;-75
2023/07/30 08:04:35;;;;;;;;;1.75;1.75;;;;;;;;4826647;29;45305;-75
2023/07/30 08:07:03;;;;;;;;;2.75;1.00;;;;;;;;4836481;29;45625;-75
2023/07/30 08:09:28;;;;;;;;;2.00;2.00;;;;;;;;4845097;29;45394;-75
2023/07/30 08:11:53;;;;;;;;;3.00;1.00;;;;;;;;4845009;29;45820;-74
2023/07/30 08:14:18;;;;;;;;;2.25;2.25;;;;;;;;4845122;29;45465;-75
2023/07/30 08:16:44;;;;;;;;;6.75;2.00;;;;;;;;4844739;29;47198;-74
2023/07/30 08:19:09;;;;;;;;;3.50;1.50;;;;;;;;4844826;29;45443;-75
2023/07/30 08:21:34;;;;;;;;;1.50;1.00;;;;;;;;4844959;29;45369;-73
2023/07/30 08:23:59;;;;;;;;;2.00;1.00;;;;;;;;4845049;29;45274;-75
2023/07/30 08:26:25;;;;;;;;;3.50;2.00;;;;;;;;4844693;29;45379;-75
2023/07/30 08:28:50;;;;;;;;;2.25;1.50;;;;;;;;4844573;29;45418;-75
2023/07/30 08:31:15;;;;;;;;;3.75;1.25;;;;;;;;4844572;29;45633;-76
2023/07/30 08:33:40;;;;;;;;;5.00;2.00;;;;;;;;4845034;29;45171;-75
2023/07/30 08:36:06;;;;;;;;;5.50;1.00;;;;;;;;4844438;29;47137;-75
2023/07/30 08:38:31;;;;;;;;;5.50;2.00;;;;;;;;4844533;29;45240;-76
2023/07/30 08:40:56;;;;;;;;;3.75;1.00;;;;;;;;4844718;29;45231;-75
2023/07/30 08:43:22;;;;;;;;;0.75;0.75;;;;;;;;4844873;29;45226;-76
2023/07/30 08:45:47;;;;;;;;;2.75;1.00;;;;;;;;4844356;29;45352;-76
2023/07/30 08:48:13;;;;;;;;;2.75;1.00;;;;;;;;4844535;29;45286;-74
2023/07/30 08:50:38;;;;;;;;;1.00;1.00;;;;;;;;4844541;29;45399;-74
2023/07/30 08:53:05;;;;;;;;;2.50;1.25;;;;;;;;4844545;29;45522;-75
2023/07/30 08:55:33;;;;;;;;;2.75;1.00;;;;;;;;4844514;29;45669;-74
2023/07/30 08:57:59;;;;;;;;;1.00;0.00;;;;;;;;4844319;29;45671;-74
2023/07/30 09:00:25;;;;;;;;;2.75;0.25;;;;;;;;4843764;29;45286;-75
2023/07/30 09:02:52;;;;;;;;;1.25;1.00;;;;;;;;4844470;29;45430;-75
2023/07/30 09:05:18;;;;;;;;;2.50;1.00;;;;;;;;4844184;29;45362;-75
2023/07/30 09:07:43;;;;;;;;;3.50;1.00;;;;;;;;4845416;29;45260;-75
2023/07/30 09:10:09;;;;;;;;;2.75;2.50;;;;;;;;4847679;29;45442;-74
2023/07/30 09:12:35;;;;;;;;;0.00;0.00;;;;;;;;4847777;29;45290;-75
2023/07/30 09:15:02;;;;;;;;;2.50;1.00;;;;;;;;4847443;29;46472;-75
2023/07/30 09:17:28;;;;;;;;;0.00;0.00;;;;;;;;4847334;29;45336;-72
2023/07/30 09:19:53;;;;;;;;;2.25;0.00;;;;;;;;4847614;29;45330;-68
2023/07/30 09:22:28;;;;;;;;;0.50;0.50;;;;;;;;4847426;29;45500;-67
2023/07/30 09:24:55;;;;;;;;;1.25;0.75;;;;;;;;4847121;29;45664;-76
2023/07/30 09:27:25;;;;;;;;;1.00;1.00;;;;;;;;4845983;29;45332;-75
2023/07/30 09:29:51;;;;;;;;;1.00;0.00;;;;;;;;4846533;29;45402;-74
2023/07/30 09:32:16;;;;;;;;;4.00;3.00;;;;;;;;4847293;29;45266;-74
2023/07/30 09:34:44;;;;;;;;;2.00;0.50;;;;;;;;4846789;29;46729;-74
2023/07/30 09:37:09;;;;;;;;;1.50;0.25;;;;;;;;4847023;29;45515;-75
2023/07/30 09:39:37;;;;;;;;;1.00;1.00;;;;;;;;4846916;29;45396;-73
2023/07/30 09:42:02;;;;;;;;;0.75;0.75;;;;;;;;4847508;29;45304;-74
2023/07/30 09:44:27;;;;;;;;;1.00;1.00;;;;;;;;4846895;29;45443;-73
2023/07/30 09:46:53;;;;;;;;;2.00;0.75;;;;;;;;4846913;29;45221;-74
2023/07/30 09:49:18;;;;;;;;;1.67;0.00;;;;;;;;4847101;29;45221;-74
2023/07/30 09:51:44;;;;;;;;;0.33;0.00;;;;;;;;4847216;29;45260;-73
2023/07/30 09:54:11;;;;;;;;;0.00;0.00;;;;;;;;4846795;29;46467;-74
2023/07/30 09:56:37;;;;;;;;;0.67;0.00;;;;;;;;4846853;29;45334;-74
2023/07/30 09:59:02;;;;;;;;;0.00;0.00;;;;;;;;4846775;29;45328;-74
2023/07/30 10:01:29;;;;;;;;;0.00;0.00;;;;;;;;4847228;29;45311;-75
2023/07/30 10:03:56;;;;;;;;;3.33;1.00;;;;;;;;4846724;29;46258;-74
2023/07/30 10:06:23;;;;;;;;;0.00;0.00;;;;;;;;4846659;29;45259;-72
2023/07/30 10:08:49;;;;;;;;;3.33;0.67;;;;;;;;4846567;29;45504;-73
2023/07/30 10:11:14;;;;;;;;;1.00;1.00;;;;;;;;4846858;29;45382;-74
2023/07/30 10:13:40;;;;;;;;;0.33;0.00;;;;;;;;4846671;29;46214;-74
2023/07/30 10:16:10;;;;;;;;;0.67;0.67;;;;;;;;4846639;29;45320;-73
2023/07/30 10:18:42;;;;;;;;;0.00;0.00;;;;;;;;4846300;29;45249;-73
2023/07/30 10:21:09;;;;;;;;;1.00;1.00;;;;;;;;4846850;29;45398;-74
2023/07/30 10:23:34;;;;;;;;;2.33;2.33;;;;;;;;4846215;29;46077;-74
2023/07/30 10:26:08;;;;;;;;;3.33;1.67;;;;;;;;4846368;29;45333;-74
2023/07/30 10:28:38;;;;;;;;;1.00;1.00;;;;;;;;4846643;29;45398;-73
2023/07/30 10:31:13;;;;;;;;;3.00;2.33;;;;;;;;4846550;29;45510;-74
2023/07/30 10:33:51;;;;;;;;;1.00;1.00;;;;;;;;4846101;29;46622;-75
2023/07/30 10:36:36;;;;;;;;;0.00;0.00;;;;;;;;4846266;29;45299;-75
2023/07/30 10:39:11;;;;;;;;;0.00;0.00;;;;;;;;4845602;29;45434;-74
2023/07/30 10:41:37;;;;;;;;;3.00;1.00;;;;;;;;4846473;29;45353;-74
2023/07/30 10:44:02;;;;;;;;;0.33;0.33;;;;;;;;4846107;29;46322;-75
2023/07/30 10:46:28;;;;;;;;;2.33;1.00;;;;;;;;4846251;29;45387;-74
2023/07/30 10:48:53;;;;;;;;;13.33;12.33;;;;;;;;4846313;29;45408;-74
2023/07/30 10:51:20;;;;;;;;;1.67;0.33;;;;;;;;4846349;29;45327;-73
2023/07/30 10:53:46;;;;;;;;;0.67;0.67;;;;;;;;4845823;29;46672;-74
2023/07/30 10:56:12;;;;;;;;;2.00;1.00;;;;;;;;4845992;29;45306;-73
2023/07/30 10:58:37;;;;;;;;;1.00;1.00;;;;;;;;4846102;29;45373;-74
2023/07/30 11:01:06;;;;;;;;;0.00;0.00;;;;;;;;4852901;29;45900;-74
2023/07/30 11:03:32;;;;;;;;;0.67;0.33;;;;;;;;4863386;29;45537;-75
2023/07/30 11:05:57;;;;;;;;;0.00;0.00;;;;;;;;4860356;29;45288;-74
2023/07/30 11:08:32;;;;;;;;;0.00;0.00;;;;;;;;4843844;29;45451;-74
2023/07/30 11:10:58;;;;;;;;;1.67;0.67;;;;;;;;4843391;29;45669;-74
2023/07/30 11:13:23;;;;;;;;;0.00;0.00;;;;;;;;4844330;29;45708;-74
2023/07/30 11:15:48;;;;;;;;;1.00;1.00;;;;;;;;4844401;29;45485;-75
2023/07/30 11:18:14;;;;;;;;;0.00;0.00;;;;;;;;4849154;29;45378;-75
2023/07/30 11:20:39;;;;;;;;;1.33;0.00;;;;;;;;4844952;29;45511;-75
2023/07/30 11:23:21;;;;;;;;;0.67;0.00;;;;;;;;4844065;29;46254;-74
2023/07/30 11:25:49;;;;;;;;;0.00;0.00;;;;;;;;4844123;29;45318;-74
2023/07/30 11:28:14;;;;;;;;;0.67;0.00;;;;;;;;4844339;29;45376;-74
2023/07/30 11:30:39;;;;;;;;;5.00;5.00;;;;;;;;4843826;29;45493;-73
2023/07/30 11:33:05;;;;;;;;;1.67;1.67;;;;;;;;4844246;29;46271;-71
2023/07/30 11:35:30;;;;;;;;;3.00;2.00;;;;;;;;4844090;29;45451;-73
2023/07/30 11:37:57;;;;;;;;;0.00;0.00;;;;;;;;4843900;29;45226;-72
2023/07/30 11:40:22;;;;;;;;;0.00;0.00;;;;;;;;4844601;29;45479;-70
2023/07/30 11:42:47;;;;;;;;;3.00;1.00;;;;;;;;4843593;29;47686;-68
2023/07/30 11:45:20;;;;;;;;;1.33;1.33;;;;;;;;4827532;29;45387;-68
2023/07/30 11:47:45;;;;;;;;;2.67;0.67;;;;;;;;4843694;29;45455;-69
2023/07/30 11:50:10;;;;;;;;;2.00;1.00;;;;;;;;4844163;29;45427;-69
2023/07/30 11:52:36;;;;;;;;;3.00;1.00;;;;;;;;4844184;29;46214;-70
2023/07/30 11:55:04;;;;;;;;;1.00;1.00;;;;;;;;4843639;29;45198;-72
2023/07/30 11:57:35;;;;;;;;;2.00;1.00;;;;;;;;4844425;29;45220;-72
2023/07/30 12:00:00;;;;;;;;;3.00;1.00;;;;;;;;4843810;29;45625;-71
2023/07/30 12:02:26;;;;;;;;;2.00;1.00;;;;;;;;4843926;29;46089;-72
2023/07/30 12:04:51;;;;;;;;;1.00;1.00;;;;;;;;4843778;29;45256;-73
2023/07/30 12:07:25;;;;;;;;;1.00;1.00;;;;;;;;4843652;29;45507;-72
2023/07/30 12:09:50;;;;;;;;;1.67;1.00;;;;;;;;4843704;29;45430;-71
2023/07/30 12:12:15;;;;;;;;;2.67;1.00;;;;;;;;4843829;29;45622;-70
2023/07/30 12:14:52;;;;;;;;;0.00;0.00;;;;;;;;4843743;29;45370;-72
2023/07/30 12:17:17;;;;;;;;;1.00;1.00;;;;;;;;4843998;29;46038;-72
2023/07/30 12:19:42;;;;;;;;;3.00;1.33;;;;;;;;4844267;29;45335;-70
2023/07/30 12:22:08;;;;;;;;;4.00;1.00;;;;;;;;4843391;29;46527;-67
2023/07/30 12:24:33;;;;;;;;;2.67;2.00;;;;;;;;4843170;29;45185;-67
2023/07/30 12:26:58;;;;;;;;;1.33;1.00;;;;;;;;4843311;29;45323;-68
2023/07/30 12:29:24;;;;;;;;;1.00;1.00;;;;;;;;4843828;29;45539;-67
2023/07/30 12:31:51;;;;;;;;;4.33;2.67;;;;;;;;4843611;29;45731;-67
2023/07/30 12:34:17;;;;;;;;;2.67;1.00;;;;;;;;4843470;29;45335;-67
2023/07/30 12:36:42;;;;;;;;;3.00;1.00;;;;;;;;4843834;29;45426;-68
2023/07/30 12:39:08;;;;;;;;;3.33;3.00;;;;;;;;4843231;29;45522;-69
2023/07/30 12:41:33;;;;;;;;;2.33;2.33;;;;;;;;4844674;29;46640;-68
2023/07/30 12:43:58;;;;;;;;;3.00;3.00;;;;;;;;4845973;29;45527;-67
2023/07/30 12:46:23;;;;;;;;;3.00;1.00;;;;;;;;4845030;29;45526;-69
2023/07/30 12:48:49;;;;;;;;;2.00;2.00;;;;;;;;4856605;29;45587;-69
2023/07/30 12:51:14;;;;;;;;;1.00;1.00;;;;;;;;4846633;29;45623;-70
2023/07/30 12:53:39;;;;;;;;;2.00;2.00;;;;;;;;4850872;29;46029;-70
2023/07/30 12:56:05;;;;;;;;;2.00;2.00;;;;;;;;4846847;29;45480;-68
2023/07/30 12:58:30;;;;;;;;;2.67;2.67;;;;;;;;4846712;29;45344;-70
2023/07/30 13:00:55;;;;;;;;;5.00;2.00;;;;;;;;4846541;29;46172;-68
2023/07/30 13:03:20;;;;;;;;;3.67;2.00;;;;;;;;4846629;29;45233;-74
2023/07/30 13:05:46;;;;;;;;;3.33;2.33;;;;;;;;4849044;29;45236;-73
2023/07/30 13:08:11;;;;;;;;;1.67;1.67;;;;;;;;4846256;29;45591;-73
2023/07/30 13:10:36;;;;;;;;;6.33;4.00;;;;;;;;4845724;29;46427;-73
2023/07/30 13:13:01;;;;;;;;;5.00;5.00;;;;;;;;4845959;29;45355;-73
2023/07/30 13:15:28;;;;;;;;;2.33;2.00;;;;;;;;4846440;29;45630;-74
2023/07/30 13:17:53;;;;;;;;;7.33;2.00;;;;;;;;4846113;29;46041;-73
2023/07/30 13:20:18;;;;;;;;;3.00;2.00;;;;;;;;4845476;29;46447;-73
2023/07/30 13:22:43;;;;;;;;;3.33;2.00;;;;;;;;4846056;29;45436;-73
2023/07/30 13:25:09;;;;;;;;;1.33;1.00;;;;;;;;4845929;29;45423;-73
2023/07/30 13:27:34;;;;;;;;;4.00;1.33;;;;;;;;4846021;29;45185;-74
2023/07/30 13:29:59;;;;;;;;;3.67;2.00;;;;;;;;4846261;29;45452;-73
2023/07/30 13:32:24;;;;;;;;;3.00;2.00;;;;;;;;4845689;29;45324;-74
2023/07/30 13:34:50;;;;;;;;;4.00;2.67;;;;;;;;4846400;29;45329;-73
2023/07/30 13:37:15;;;;;;;;;4.00;2.00;;;;;;;;4846635;29;45288;-73
2023/07/30 13:39:40;;;;;;;;;5.00;3.33;;;;;;;;4845588;29;45384;-74
2023/07/30 13:42:05;;;;;;;;;5.33;1.67;;;;;;;;4846304;29;45412;-73
2023/07/30 13:44:30;;;;;;;;;3.00;3.00;;;;;;;;4845816;29;45343;-73
2023/07/30 13:46:56;;;;;;;;;1.67;1.33;;;;;;;;4846370;29;45300;-73
2023/07/30 13:49:21;;;;;;;;;2.00;2.00;;;;;;;;4846074;29;47204;-73
2023/07/30 13:51:46;;;;;;;;;2.33;1.33;;;;;;;;4845469;29;45340;-73
2023/07/30 13:54:11;;;;;;;;;4.00;1.00;;;;;;;;4845307;29;45352;-73
2023/07/30 13:56:38;;;;;;;;;4.00;2.67;;;;;;;;4845773;29;45289;-73
2023/07/30 13:59:03;;;;;;;;;3.67;2.00;;;;;;;;4845537;29;46234;-73
2023/07/30 14:01:29;;;;;;;;;2.67;1.00;;;;;;;;4846064;29;45436;-73
2023/07/30 14:03:54;;;;;;;;;2.67;1.00;;;;;;;;4845553;29;45438;-74
2023/07/30 14:06:19;;;;;;;;;1.00;1.00;;;;;;;;4845362;29;45531;-73
2023/07/30 14:08:44;;;;;;;;;2.00;1.67;;;;;;;;4845467;29;45708;-73
2023/07/30 14:11:10;;;;;;;;;12.67;11.00;;;;;;;;4845588;29;45509;-73
2023/07/30 14:13:35;;;;;;;;;3.00;2.00;;;;;;;;4845962;29;45568;-74
2023/07/30 14:16:00;;;;;;;;;1.67;1.67;;;;;;;;4845779;29;45447;-73
2023/07/30 14:18:25;;;;;;;;;4.67;2.00;;;;;;;;4845318;29;45353;-73
2023/07/30 14:20:51;;;;;;;;;6.67;3.33;;;;;;;;4845091;29;45501;-73
2023/07/30 14:23:16;;;;;;;;;1.00;1.00;;;;;;;;4845529;29;45458;-73
2023/07/30 14:25:41;;;;;;;;;2.00;0.33;;;;;;;;4845464;29;45439;-72
2023/07/30 14:28:06;;;;;;;;;7.33;5.00;;;;;;;;4844996;29;45543;-73
2023/07/30 14:30:32;;;;;;;;;2.00;1.67;;;;;;;;4845759;29;45668;-73
2023/07/30 14:32:57;;;;;;;;;1.33;1.33;;;;;;;;4845127;29;45905;-73
2023/07/30 14:35:22;;;;;;;;;2.00;2.00;;;;;;;;4845759;29;45391;-73